Time;durP1;ratioP1;P1;durP2;ratioP2;P2;SDS_P1;SDS_P2;PMS_P1;PMS_P2;Temp;Humidity;BMP_temperature;BMP_pressure;BME280_temperature;BME280_humidity;BME280_pressure;Samples;Min_cycle;Max_cycle;Signal;HPM_P1;HPM_P2
2023/07/25 00:01:20;;;;;;;15.43;7.72;;;;;;;18.32;100.00;94502.34;4990079;28;20084;-90
2023/07/25 00:03:48;;;;;;;11.02;6.60;;;;;;;18.38;100.00;94507.47;4990430;28;20023;-89
2023/07/25 00:06:14;;;;;;;11.82;7.18;;;;;;;18.59;100.00;94511.34;4972217;28;20100;-88
2023/07/25 00:08:39;;;;;;;13.82;7.35;;;;;;;18.54;100.00;94521.75;4972947;28;20113;-89
2023/07/25 00:11:10;;;;;;;10.57;6.63;;;;;;;18.45;100.00;94520.47;4972441;28;20112;-88
2023/07/25 00:13:35;;;;;;;11.57;7.95;;;;;;;18.46;100.00;94531.75;4972495;28;20038;-86
2023/07/25 00:16:01;;;;;;;9.93;6.95;;;;;;;18.32;100.00;94504.97;4972154;28;20396;-87
2023/07/25 00:18:26;;;;;;;14.57;7.75;;;;;;;18.74;100.00;94527.41;4989511;28;20507;-88
2023/07/25 00:20:52;;;;;;;11.88;7.18;;;;;;;18.67;100.00;94531.19;4955915;28;20136;-88
2023/07/25 00:23:17;;;;;;;14.13;7.93;;;;;;;18.68;100.00;94509.19;4989942;28;20034;-88
2023/07/25 00:25:42;;;;;;;16.13;7.60;;;;;;;18.63;100.00;94522.19;4989827;28;20050;-88
2023/07/25 00:28:08;;;;;;;11.93;7.20;;;;;;;18.52;100.00;94518.56;4971768;28;20084;-89
2023/07/25 00:30:33;;;;;;;12.98;6.90;;;;;;;18.34;100.00;94518.63;4956329;28;20034;-89
2023/07/25 00:32:59;;;;;;;12.60;7.53;;;;;;;18.22;100.00;94518.66;4988724;28;20046;-87
2023/07/25 00:35:24;;;;;;;10.90;7.25;;;;;;;18.28;100.00;94528.22;4989581;28;20503;-85
2023/07/25 00:37:50;;;;;;;9.95;6.30;;;;;;;18.57;100.00;94525.72;4971294;28;20412;-86
2023/07/25 00:40:15;;;;;;;12.32;7.78;;;;;;;18.31;100.00;94530.41;4971318;28;20496;-86
2023/07/25 00:42:41;;;;;;;15.15;7.90;;;;;;;18.33;100.00;94536.19;4988978;28;20025;-85
2023/07/25 00:45:07;;;;;;;10.70;6.80;;;;;;;18.30;100.00;94530.63;4988562;28;20531;-85
2023/07/25 00:47:33;;;;;;;13.00;7.45;;;;;;;18.36;100.00;94529.72;4989027;28;20185;-85
2023/07/25 00:49:58;;;;;;;10.68;7.20;;;;;;;18.15;100.00;94538.94;4971514;28;20131;-88
2023/07/25 00:52:25;;;;;;;13.55;7.90;;;;;;;18.28;100.00;94530.84;4989078;28;20121;-86
2023/07/25 00:54:50;;;;;;;10.00;6.85;;;;;;;18.20;100.00;94518.09;4971230;28;20030;-86
2023/07/25 00:57:17;;;;;;;9.75;7.15;;;;;;;18.02;100.00;94520.81;4988648;28;20026;-87
2023/07/25 00:59:44;;;;;;;11.48;7.13;;;;;;;18.23;100.00;94527.31;4971111;28;20117;-87
2023/07/25 01:02:10;;;;;;;13.43;7.50;;;;;;;18.23;100.00;94525.50;4988442;28;20049;-86
2023/07/25 01:04:37;;;;;;;15.95;8.73;;;;;;;18.24;100.00;94529.69;4971099;28;20049;-86
2023/07/25 01:07:04;;;;;;;9.57;6.57;;;;;;;18.01;100.00;94519.22;4988145;28;20042;-87
2023/07/25 01:09:37;;;;;;;17.85;8.10;;;;;;;17.80;100.00;94541.53;4971713;28;20092;-90
2023/07/25 01:12:07;;;;;;;13.82;7.55;;;;;;;17.75;100.00;94557.13;4971263;28;20026;-87
2023/07/25 01:14:33;;;;;;;15.63;8.75;;;;;;;17.79;100.00;94553.00;4971527;28;20049;-89
2023/07/25 01:17:21;;;;;;;13.90;7.75;;;;;;;17.69;100.00;94550.13;4971305;28;20085;-92
2023/07/25 01:19:47;;;;;;;10.82;7.40;;;;;;;17.75;100.00;94540.59;4988088;28;20535;-88
2023/07/25 01:22:13;;;;;;;12.43;7.63;;;;;;;17.86;100.00;94539.81;4971007;28;20034;-87
2023/07/25 01:24:46;;;;;;;13.73;7.43;;;;;;;17.69;100.00;94534.41;4970911;28;20033;-90
2023/07/25 01:27:12;;;;;;;9.73;6.85;;;;;;;17.81;100.00;94535.28;4971510;28;20037;-88
2023/07/25 01:29:38;;;;;;;12.82;7.78;;;;;;;17.62;100.00;94544.22;4988922;28;20084;-90
2023/07/25 01:32:04;;;;;;;15.40;7.80;;;;;;;17.63;100.00;94542.38;4971771;28;20046;-96
2023/07/25 01:34:30;;;;;;;11.43;7.80;;;;;;;17.69;100.00;94531.03;4970400;28;20037;-88
2023/07/25 01:36:55;;;;;;;11.93;7.22;;;;;;;17.93;100.00;94516.94;4970691;28;20030;-88
2023/07/25 01:39:21;;;;;;;10.73;7.03;;;;;;;17.87;100.00;94515.22;4971239;28;20026;-91
2023/07/25 01:41:46;;;;;;;13.23;7.45;;;;;;;17.83;100.00;94524.53;4954839;28;20050;-87
2023/07/25 01:44:12;;;;;;;11.73;7.57;;;;;;;17.96;100.00;94506.00;4988680;28;20473;-87
2023/07/25 01:46:41;;;;;;;11.38;7.78;;;;;;;17.87;100.00;94516.03;4970790;28;20034;-87
2023/07/25 01:49:09;;;;;;;16.02;7.70;;;;;;;17.77;100.00;94522.84;4971188;28;20034;-94
2023/07/25 01:51:35;;;;;;;11.80;6.85;;;;;;;17.95;100.00;94498.38;4970112;28;20026;-87
2023/07/25 01:54:00;;;;;;;13.45;7.35;;;;;;;17.83;100.00;94507.00;4988319;28;20037;-88
2023/07/25 01:56:26;;;;;;;14.82;7.18;;;;;;;17.79;100.00;94507.66;4988356;28;20030;-88
2023/07/25 01:58:51;;;;;;;10.80;7.35;;;;;;;17.74;100.00;94504.94;4988173;28;20033;-89
2023/07/25 02:01:16;;;;;;;12.00;6.63;;;;;;;17.90;100.00;94499.84;4970695;28;20026;-87
2023/07/25 02:03:42;;;;;;;13.63;7.72;;;;;;;17.95;100.00;94509.63;4970045;28;20058;-92
2023/07/25 02:06:08;;;;;;;13.27;7.82;;;;;;;17.78;100.00;94506.91;4955585;28;20030;-88
2023/07/25 02:08:33;;;;;;;12.43;8.02;;;;;;;17.94;100.00;94520.34;4969920;28;20373;-86
2023/07/25 02:10:58;;;;;;;11.93;7.38;;;;;;;17.71;100.00;94532.41;4970336;28;20026;-85
2023/07/25 02:13:24;;;;;;;11.77;7.22;;;;;;;17.93;100.00;94524.78;4987277;28;20457;-87
2023/07/25 02:15:49;;;;;;;15.68;7.63;;;;;;;17.91;100.00;94524.22;4970219;28;20081;-85
2023/07/25 02:18:15;;;;;;;14.23;8.05;;;;;;;17.91;100.00;94526.84;4970488;28;20049;-86
2023/07/25 02:20:40;;;;;;;13.25;7.57;;;;;;;17.93;100.00;94535.28;4987397;28;20503;-85
2023/07/25 02:23:06;;;;;;;13.02;7.30;;;;;;;17.85;100.00;94546.09;4970753;28;20030;-86
2023/07/25 02:25:32;;;;;;;13.98;7.70;;;;;;;17.77;100.00;94543.78;4970141;28;20093;-87
2023/07/25 02:27:57;;;;;;;11.70;7.35;;;;;;;17.37;100.00;94574.94;4988259;28;20029;-93
2023/07/25 02:30:23;;;;;;;14.25;7.75;;;;;;;17.24;100.00;94596.06;4977472;28;20022;-87
2023/07/25 02:32:48;;;;;;;14.77;7.68;;;;;;;17.46;100.00;94593.78;4970355;28;20066;-88
2023/07/25 02:35:16;;;;;;;11.70;7.78;;;;;;;17.30;100.00;94593.38;4996206;28;20397;-88
2023/07/25 02:37:42;;;;;;;13.13;7.85;;;;;;;17.37;100.00;94596.69;4954274;28;20039;-88
2023/07/25 02:40:07;;;;;;;8.80;6.97;;;;;;;17.44;100.00;94588.75;4987878;28;20428;-88
2023/07/25 02:42:33;;;;;;;14.05;8.27;;;;;;;17.35;100.00;94593.50;4987179;28;20030;-88
2023/07/25 02:45:00;;;;;;;15.65;7.78;;;;;;;17.37;100.00;94601.13;4988110;28;20022;-87
2023/07/25 02:47:25;;;;;;;10.38;7.53;;;;;;;17.24;100.00;94612.56;4988845;28;20105;-87
2023/07/25 02:49:51;;;;;;;15.23;7.88;;;;;;;17.42;100.00;94613.56;4973674;28;20118;-89
2023/07/25 02:52:17;;;;;;;16.40;7.80;;;;;;;17.31;100.00;94607.25;4991374;28;20428;-87
2023/07/25 02:54:43;;;;;;;13.75;7.13;;;;;;;17.46;100.00;94610.28;4973461;28;20101;-88
2023/07/25 02:57:08;;;;;;;12.57;7.97;;;;;;;17.29;100.00;94609.28;4957384;28;20058;-87
2023/07/25 02:59:34;;;;;;;16.05;8.00;;;;;;;17.59;100.00;94599.69;4990562;28;20503;-84
2023/07/25 03:01:59;;;;;;;11.90;7.35;;;;;;;17.39;100.00;94612.19;4991111;28;20037;-87
2023/07/25 03:04:25;;;;;;;13.32;8.30;;;;;;;17.36;100.00;94610.00;4991008;28;20370;-87
2023/07/25 03:06:50;;;;;;;11.45;7.32;;;;;;;17.27;100.00;94619.19;4957389;28;20639;-86
2023/07/25 03:09:16;;;;;;;11.07;7.05;;;;;;;17.54;100.00;94615.22;4990717;28;20558;-86
2023/07/25 03:11:41;;;;;;;8.82;7.10;;;;;;;17.42;100.00;94606.50;4973322;28;20065;-86
2023/07/25 03:14:06;;;;;;;11.43;7.55;;;;;;;17.50;100.00;94611.41;4990321;28;20030;-87
2023/07/25 03:16:32;;;;;;;12.70;7.78;;;;;;;17.30;100.00;94613.50;4973136;28;20030;-88
2023/07/25 03:18:57;;;;;;;13.38;7.65;;;;;;;17.50;100.00;94611.41;4990350;28;20419;-85
2023/07/25 03:21:23;;;;;;;12.85;7.60;;;;;;;17.58;100.00;94611.16;4972820;28;20478;-85
2023/07/25 03:23:48;;;;;;;17.85;8.90;;;;;;;17.46;100.00;94599.00;4990772;28;20032;-90
2023/07/25 03:26:14;;;;;;;15.80;8.38;;;;;;;17.42;100.00;94598.66;4956932;28;20041;-88
2023/07/25 03:28:40;;;;;;;13.07;7.03;;;;;;;17.23;100.00;94597.09;4991257;28;20026;-90
2023/07/25 03:31:05;;;;;;;10.85;6.63;;;;;;;17.24;100.00;94594.22;4973293;28;20026;-88
2023/07/25 03:33:31;;;;;;;11.45;8.32;;;;;;;17.35;100.00;94585.66;4972794;28;20050;-89
2023/07/25 03:35:56;;;;;;;10.95;7.28;;;;;;;17.37;100.00;94580.97;4990858;28;20030;-92
2023/07/25 03:38:22;;;;;;;13.82;8.10;;;;;;;17.55;100.00;94588.03;4973378;28;20381;-87
2023/07/25 03:40:47;;;;;;;13.77;7.03;;;;;;;17.79;100.00;94568.72;4972983;28;20490;-87
2023/07/25 03:43:13;;;;;;;11.77;6.97;;;;;;;17.75;100.00;94565.00;4972710;28;20066;-87
2023/07/25 03:45:39;;;;;;;12.98;7.85;;;;;;;18.05;100.00;94554.44;4990383;28;20062;-86
2023/07/25 03:48:05;;;;;;;23.85;7.57;;;;;;;17.94;100.00;94563.09;4972301;28;20118;-88
2023/07/25 03:50:30;;;;;;;26.33;8.13;;;;;;;17.90;100.00;94567.16;4991184;28;20473;-89
2023/07/25 03:52:59;;;;;;;11.05;7.10;;;;;;;18.13;100.00;94563.78;4972380;28;20125;-86
2023/07/25 03:55:24;;;;;;;10.18;7.75;;;;;;;18.42;100.00;94562.91;4972831;28;20497;-90
2023/07/25 03:57:50;;;;;;;13.35;7.25;;;;;;;18.86;100.00;94530.00;4989768;28;20122;-91
2023/07/25 04:00:16;;;;;;;11.20;7.40;;;;;;;19.18;100.00;94515.41;4972417;28;20430;-87
2023/07/25 04:02:42;;;;;;;13.60;7.75;;;;;;;19.55;100.00;94509.81;4972576;28;20523;-86
2023/07/25 04:05:07;;;;;;;10.05;7.28;;;;;;;20.18;100.00;94499.78;4971645;28;20030;-84
2023/07/25 04:07:34;;;;;;;11.30;7.45;;;;;;;20.39;100.00;94501.69;4972944;28;20026;-83
2023/07/25 04:10:00;;;;;;;10.85;7.05;;;;;;;20.62;100.00;94497.25;4989372;28;20156;-85
2023/07/25 04:12:25;;;;;;;13.55;7.55;;;;;;;20.84;100.00;94490.16;4972574;28;20497;-86
2023/07/25 04:14:51;;;;;;;8.40;6.75;;;;;;;21.37;100.00;94492.09;4971858;28;20139;-84
2023/07/25 04:17:16;;;;;;;11.13;7.05;;;;;;;21.71;100.00;94492.66;4989679;28;20053;-84
2023/07/25 04:19:42;;;;;;;12.70;7.97;;;;;;;22.06;100.00;94485.84;4989386;28;20018;-84
2023/07/25 04:22:07;;;;;;;17.33;8.18;;;;;;;22.47;99.61;94483.50;4989065;28;20164;-84
2023/07/25 04:24:32;;;;;;;12.50;7.88;;;;;;;22.60;100.00;94497.00;4989609;28;20503;-84
2023/07/25 04:26:58;;;;;;;8.35;6.65;;;;;;;22.94;95.86;94491.41;4988860;28;20496;-86
2023/07/25 04:29:23;;;;;;;10.27;7.68;;;;;;;22.55;97.06;94490.91;4990143;28;20031;-86
2023/07/25 04:31:49;;;;;;;9.38;6.43;;;;;;;23.19;95.02;94496.78;4951924;28;20043;-85
2023/07/25 04:34:14;;;;;;;11.38;8.00;;;;;;;23.95;91.52;94500.34;4968253;28;20038;-85
2023/07/25 04:36:40;;;;;;;9.63;6.68;;;;;;;24.49;87.37;94510.41;4968208;28;20495;-85
2023/07/25 04:39:05;;;;;;;11.95;7.20;;;;;;;24.70;83.70;94508.50;4970173;28;20031;-84
2023/07/25 04:41:30;;;;;;;9.07;7.30;;;;;;;24.99;82.12;94505.00;4970235;28;20023;-86
2023/07/25 04:43:56;;;;;;;12.80;7.00;;;;;;;24.94;82.44;94501.56;4969956;28;20033;-90
2023/07/25 04:46:21;;;;;;;11.07;7.00;;;;;;;25.63;79.08;94504.97;4969940;28;20027;-84
2023/07/25 04:48:47;;;;;;;11.95;7.32;;;;;;;25.83;80.88;94495.28;4969916;28;20078;-84
2023/07/25 04:51:12;;;;;;;12.63;7.47;;;;;;;26.04;80.28;94486.09;4968393;28;20460;-84
2023/07/25 04:53:38;;;;;;;11.50;7.63;;;;;;;26.63;71.18;94483.19;4967817;28;20471;-85
2023/07/25 04:56:03;;;;;;;12.88;7.75;;;;;;;27.12;71.45;94477.59;4967957;28;20031;-85
2023/07/25 04:58:29;;;;;;;10.10;8.10;;;;;;;27.11;72.18;94478.66;4969713;28;20015;-84
2023/07/25 05:00:54;;;;;;;12.00;7.15;;;;;;;27.30;70.55;94479.47;4967939;28;20058;-84
2023/07/25 05:03:19;;;;;;;12.70;7.70;;;;;;;28.03;68.55;94473.66;4969309;28;20443;-84
2023/07/25 05:05:45;;;;;;;12.27;7.10;;;;;;;28.20;65.11;94469.38;4967645;28;20080;-84
2023/07/25 05:08:10;;;;;;;14.80;7.93;;;;;;;28.43;66.35;94462.31;4968193;28;20484;-86
2023/07/25 05:10:36;;;;;;;14.52;7.47;;;;;;;29.16;60.18;94467.59;4968286;28;20472;-88
2023/07/25 05:13:01;;;;;;;13.82;7.28;;;;;;;29.83;56.92;94475.03;4969887;28;20527;-87
2023/07/25 05:15:27;;;;;;;13.65;7.75;;;;;;;29.53;60.96;94468.44;4968909;28;20039;-86
2023/07/25 05:17:52;;;;;;;16.50;7.30;;;;;;;29.84;60.34;94479.25;4967850;28;20035;-87
2023/07/25 05:20:18;;;;;;;10.10;7.72;;;;;;;30.66;53.69;94469.75;4968769;28;20023;-85
2023/07/25 05:22:43;;;;;;;8.40;6.95;;;;;;;31.69;53.43;94472.72;4968856;28;20428;-85
2023/07/25 05:25:09;;;;;;;7.97;7.10;;;;;;;31.55;52.65;94465.94;4969234;28;20055;-84
2023/07/25 05:27:35;;;;;;;11.00;7.78;;;;;;;31.84;53.79;94466.13;4968763;28;20034;-85
2023/07/25 05:30:00;;;;;;;12.10;8.13;;;;;;;31.80;53.34;94455.22;4969716;28;20588;-84
2023/07/25 05:32:26;;;;;;;8.13;7.32;;;;;;;31.45;54.86;94455.50;4978464;28;20074;-85
2023/07/25 05:34:51;;;;;;;12.70;7.72;;;;;;;31.73;53.97;94448.75;4970827;28;20030;-87
2023/07/25 05:37:21;;;;;;;8.15;7.15;;;;;;;31.93;50.33;94445.44;4987777;28;20065;-85
2023/07/25 05:39:50;;;;;;;9.55;7.72;;;;;;;32.98;47.74;94466.34;4971132;28;20598;-85
2023/07/25 05:42:15;;;;;;;7.93;7.22;;;;;;;33.40;48.58;94457.28;4988123;28;20084;-85
2023/07/25 05:44:41;;;;;;;8.63;7.38;;;;;;;33.56;46.38;94460.19;4988203;28;20034;-86
2023/07/25 05:47:06;;;;;;;13.10;8.57;;;;;;;33.56;48.41;94466.34;4971125;28;20034;-86
2023/07/25 05:49:31;;;;;;;7.53;6.40;;;;;;;33.71;47.73;94462.34;4970072;28;20495;-85
2023/07/25 05:51:57;;;;;;;7.57;6.43;;;;;;;33.87;45.43;94455.25;4971193;28;20535;-85
2023/07/25 05:54:22;;;;;;;8.90;7.10;;;;;;;34.01;44.63;94447.69;4953961;28;20033;-86
2023/07/25 05:56:48;;;;;;;7.33;6.63;;;;;;;35.00;41.68;94448.38;4970589;28;20407;-85
2023/07/25 05:59:14;;;;;;;7.90;7.10;;;;;;;34.68;43.98;94450.03;4970393;28;20119;-85
2023/07/25 06:01:39;;;;;;;10.83;6.40;;;;;;;35.42;41.46;94446.25;4987765;28;20022;-86
2023/07/25 06:04:05;;;;;;;8.23;6.00;;;;;;;35.92;39.48;94451.22;4970673;28;20034;-87
2023/07/25 06:06:30;;;;;;;8.80;7.07;;;;;;;35.06;41.03;94451.66;4954255;28;20034;-86
2023/07/25 06:08:56;;;;;;;8.40;7.50;;;;;;;35.99;40.75;94442.53;4970586;28;20066;-85
2023/07/25 06:11:23;;;;;;;9.77;6.70;;;;;;;35.87;39.98;94444.13;4969978;28;20106;-86
2023/07/25 06:13:49;;;;;;;8.10;6.43;;;;;;;36.11;39.90;94437.09;4970815;28;20057;-86
2023/07/25 06:16:18;;;;;;;7.22;6.13;;;;;;;36.38;40.99;94439.00;4953834;28;20523;-86
2023/07/25 06:18:44;;;;;;;8.50;7.07;;;;;;;36.37;38.46;94440.13;4970076;28;20449;-85
2023/07/25 06:21:10;;;;;;;10.43;7.17;;;;;;;36.92;36.67;94433.84;4972338;28;20080;-86
2023/07/25 06:23:35;;;;;;;7.43;6.55;;;;;;;37.15;37.27;94434.78;4974219;28;20411;-86
2023/07/25 06:26:00;;;;;;;9.07;6.72;;;;;;;36.84;36.87;94443.69;4981942;28;20022;-86
2023/07/25 06:28:26;;;;;;;8.65;7.35;;;;;;;37.11;36.28;94436.63;5008547;28;20030;-86
2023/07/25 06:30:51;;;;;;;7.88;7.07;;;;;;;36.87;37.32;94426.75;5002505;28;20034;-86
2023/07/25 06:33:17;;;;;;;8.15;6.43;;;;;;;35.90;38.48;94421.88;4973681;28;20503;-86
2023/07/25 06:35:42;;;;;;;7.88;7.07;;;;;;;34.53;41.91;94421.06;4958027;28;20110;-86
2023/07/25 06:38:08;;;;;;;9.13;7.07;;;;;;;34.82;42.84;94409.34;4974286;28;20519;-87
2023/07/25 06:40:33;;;;;;;9.98;6.63;;;;;;;34.29;44.48;94411.03;4991442;28;20431;-87
2023/07/25 06:42:59;;;;;;;7.57;6.80;;;;;;;34.71;45.34;94408.97;4958022;28;20073;-86
2023/07/25 06:45:24;;;;;;;7.50;6.80;;;;;;;34.53;45.67;94401.44;4973576;28;20572;-86
2023/07/25 06:47:49;;;;;;;9.53;7.03;;;;;;;36.65;39.15;94403.06;4973706;28;20042;-86
2023/07/25 06:50:15;;;;;;;7.53;6.50;;;;;;;36.83;38.25;94404.28;4973344;28;20053;-87
2023/07/25 06:52:40;;;;;;;8.93;7.00;;;;;;;37.89;37.49;94393.13;4991302;28;20378;-86
2023/07/25 06:55:06;;;;;;;9.30;6.63;;;;;;;38.56;35.71;94388.22;4991497;28;20026;-86
2023/07/25 06:57:32;;;;;;;7.00;6.07;;;;;;;37.31;39.36;94384.16;4974416;28;20052;-86
2023/07/25 06:59:57;;;;;;;7.82;6.95;;;;;;;37.48;38.54;94374.91;4991139;28;20121;-89
2023/07/25 07:02:22;;;;;;;10.80;6.25;;;;;;;36.39;39.65;94370.38;4974088;28;20037;-87
2023/07/25 07:04:48;;;;;;;7.43;6.72;;;;;;;36.32;40.20;94367.47;4973596;28;20031;-87
2023/07/25 07:07:13;;;;;;;9.18;6.90;;;;;;;34.19;45.63;94373.03;4973835;28;20030;-88
2023/07/25 07:09:39;;;;;;;7.72;6.25;;;;;;;34.01;48.06;94366.19;4958002;28;20523;-91
2023/07/25 07:12:05;;;;;;;7.85;6.70;;;;;;;33.09;47.29;94377.09;4973836;28;20045;-95
2023/07/25 07:14:30;;;;;;;8.55;7.10;;;;;;;34.45;48.48;94361.97;4957719;28;20105;-87
2023/07/25 07:16:56;;;;;;;10.20;7.05;;;;;;;33.98;44.69;94358.81;4973348;28;20488;-87
2023/07/25 07:19:22;;;;;;;7.70;6.50;;;;;;;33.07;47.51;94359.69;4957955;28;20510;-87
2023/07/25 07:21:47;;;;;;;9.50;6.65;;;;;;;32.05;48.74;94353.66;4973411;28;20035;-89
2023/07/25 07:24:12;;;;;;;8.57;7.15;;;;;;;32.37;49.05;94363.81;4973296;28;20113;-88
2023/07/25 07:26:38;;;;;;;10.15;6.50;;;;;;;32.89;51.62;94359.00;4957466;28;20028;-87
2023/07/25 07:29:03;;;;;;;11.60;6.45;;;;;;;32.80;48.94;94356.38;4956821;28;20022;-92
2023/07/25 07:31:29;;;;;;;7.38;6.15;;;;;;;33.73;50.25;94363.31;4974100;28;20420;-90
2023/07/25 07:34:08;;;;;;;9.25;6.57;;;;;;;33.38;49.87;94360.13;4956832;28;20041;-87
2023/07/25 07:36:34;;;;;;;8.40;6.10;;;;;;;34.27;50.24;94339.84;4973692;28;20022;-91
2023/07/25 07:38:59;;;;;;;7.85;6.35;;;;;;;31.57;53.54;94348.53;4973339;28;20385;-88
2023/07/25 07:41:25;;;;;;;9.90;7.20;;;;;;;33.66;53.00;94355.00;4973256;28;20535;-85
2023/07/25 07:43:50;;;;;;;10.40;6.95;;;;;;;33.06;52.14;94352.75;4956764;28;20033;-87
2023/07/25 07:46:15;;;;;;;12.90;6.93;;;;;;;32.75;50.87;94345.81;4956885;28;20034;-93
2023/07/25 07:48:43;;;;;;;12.75;6.20;;;;;;;33.39;50.09;94345.59;4973576;28;20030;-87
2023/07/25 07:51:08;;;;;;;7.15;6.45;;;;;;;33.28;50.89;94342.50;4957402;28;20431;-88
2023/07/25 07:53:34;;;;;;;11.90;7.20;;;;;;;33.78;52.39;94345.06;4957203;28;20122;-87
2023/07/25 07:56:03;;;;;;;8.35;6.07;;;;;;;34.03;50.14;94345.16;4956409;28;20030;-88
2023/07/25 07:58:29;;;;;;;10.40;6.55;;;;;;;34.60;51.31;94335.19;4956533;28;20603;-88
2023/07/25 08:00:54;;;;;;;11.60;6.72;;;;;;;34.39;50.93;94332.56;4972505;28;20054;-87
2023/07/25 08:03:20;;;;;;;10.70;6.70;;;;;;;34.83;51.29;94305.88;4972350;28;20037;-87
2023/07/25 08:05:45;;;;;;;8.15;6.63;;;;;;;34.31;48.90;94327.28;4972938;28;20069;-88
2023/07/25 08:08:11;;;;;;;10.10;6.63;;;;;;;33.07;52.74;94327.47;4956013;28;20471;-91
2023/07/25 08:10:36;;;;;;;9.63;7.22;;;;;;;34.22;51.40;94321.25;4972819;28;20034;-87
2023/07/25 08:13:02;;;;;;;9.20;6.32;;;;;;;34.79;51.19;94326.53;4989395;28;20134;-93
2023/07/25 08:15:27;;;;;;;10.02;6.55;;;;;;;33.52;53.71;94320.34;4990326;28;20061;-87
2023/07/25 08:17:52;;;;;;;9.60;6.93;;;;;;;34.40;51.68;94307.22;4972756;28;20023;-87
2023/07/25 08:20:18;;;;;;;7.68;6.68;;;;;;;34.39;50.98;94305.66;4972443;28;20125;-88
2023/07/25 08:22:44;;;;;;;7.28;5.88;;;;;;;34.71;50.19;94303.22;4989673;28;20515;-88
2023/07/25 08:25:11;;;;;;;8.13;6.38;;;;;;;33.94;52.32;94306.81;4972459;28;20091;-87
2023/07/25 08:27:36;;;;;;;9.95;6.13;;;;;;;34.17;52.50;94306.09;4972808;28;20034;-87
2023/07/25 08:30:02;;;;;;;8.02;6.38;;;;;;;35.03;53.10;94306.88;4971571;28;20027;-86
2023/07/25 08:32:28;;;;;;;11.68;6.72;;;;;;;33.13;52.43;94312.78;5327998;22;20021;-87
2023/07/25 08:34:53;;;;;;;11.30;7.40;;;;;;;34.67;52.07;94302.31;4989021;28;20041;-88
2023/07/25 08:37:19;;;;;;;11.10;6.95;;;;;;;35.16;51.93;94311.13;4991452;28;20463;-87
2023/07/25 08:39:44;;;;;;;9.90;6.47;;;;;;;35.14;49.79;94310.66;4991539;28;20502;-88
2023/07/25 08:42:11;;;;;;;10.85;6.47;;;;;;;34.00;50.86;94302.81;4976850;28;20037;-88
2023/07/25 08:44:37;;;;;;;10.93;6.38;;;;;;;34.52;50.31;94294.91;4990079;28;20038;-87
2023/07/25 08:47:07;;;;;;;8.30;6.30;;;;;;;34.73;49.18;94290.97;5010166;28;20103;-89
2023/07/25 08:49:35;;;;;;;8.60;6.03;;;;;;;34.00;49.79;94290.16;4974745;28;20111;-89
2023/07/25 08:52:01;;;;;;;;;;;;;;;34.56;48.97;94287.69;4993055;28;20029;-90
2023/07/25 08:54:31;;;;;;;8.23;5.50;;;;;;;33.55;51.96;94287.44;4991405;28;19920;-90
2023/07/25 08:56:58;;;;;;;10.38;6.05;;;;;;;33.34;49.48;94282.09;4992617;28;20819;-88
2023/07/25 08:59:26;;;;;;;8.93;5.97;;;;;;;33.85;48.28;94274.63;5010335;28;20414;-90
2023/07/25 09:01:52;;;;;;;11.82;6.57;;;;;;;34.20;47.52;94275.03;4991456;28;20095;-89
2023/07/25 09:04:22;;;;;;;10.48;6.50;;;;;;;34.57;50.10;94268.53;5009632;28;20184;-88
2023/07/25 09:06:48;;;;;;;13.20;6.78;;;;;;;34.27;51.39;94275.28;5008466;28;20037;-89
2023/07/25 09:09:14;;;;;;;7.30;6.00;;;;;;;34.74;49.45;94267.53;4992276;28;20026;-89
2023/07/25 09:11:40;;;;;;;9.75;5.97;;;;;;;35.18;48.84;94265.75;4974528;28;20033;-88
2023/07/25 09:14:06;;;;;;;8.45;6.07;;;;;;;35.42;49.01;94279.13;4975839;28;20658;-90
2023/07/25 09:16:32;;;;;;;13.48;5.97;;;;;;;35.10;48.83;94269.38;4975325;28;20092;-87
2023/07/25 09:18:58;;;;;;;15.15;6.13;;;;;;;34.99;46.92;94268.25;4974546;28;20029;-88
2023/07/25 09:21:23;;;;;;;8.95;6.40;;;;;;;35.20;48.92;94279.66;4991835;28;20380;-94
2023/07/25 09:23:56;;;;;;;6.57;5.82;;;;;;;35.29;48.35;94275.69;4973897;28;20117;-89
2023/07/25 09:26:31;;;;;;;8.27;6.60;;;;;;;34.62;48.29;94275.63;4991625;28;20470;-90
2023/07/25 09:28:58;;;;;;;9.23;6.13;;;;;;;34.46;49.27;94264.72;5007651;28;20495;-89
2023/07/25 09:31:25;;;;;;;10.07;5.38;;;;;;;35.01;49.30;94266.78;4991501;28;20029;-88
2023/07/25 09:33:55;;;;;;;10.00;5.80;;;;;;;34.27;51.24;94259.13;4974459;28;20088;-91
2023/07/25 09:36:20;;;;;;;12.40;6.68;;;;;;;33.97;50.00;94255.84;4991989;28;20399;-90
2023/07/25 09:38:54;;;;;;;8.85;6.53;;;;;;;34.45;50.54;94252.41;4975503;28;20112;-89
2023/07/25 09:41:21;;;;;;;10.40;6.30;;;;;;;34.80;48.54;94255.41;4974105;28;20036;-87
2023/07/25 09:43:46;;;;;;;10.17;6.10;;;;;;;34.64;47.64;94251.84;4991823;28;20029;-90
2023/07/25 09:46:12;;;;;;;8.68;5.95;;;;;;;35.03;50.55;94250.31;4990138;28;20026;-91
2023/07/25 09:48:51;;;;;;;8.57;5.90;;;;;;;34.77;48.17;94242.63;4975409;28;20041;-87
2023/07/25 09:51:16;;;;;;;9.68;5.70;;;;;;;35.29;49.76;94247.97;4990523;28;20037;-87
2023/07/25 09:53:49;;;;;;;13.23;6.75;;;;;;;34.72;48.51;94238.25;4974172;28;20040;-88
2023/07/25 09:56:15;;;;;;;13.27;6.15;;;;;;;35.01;49.92;94245.25;4991293;28;20088;-85
2023/07/25 09:58:41;;;;;;;11.30;6.63;;;;;;;34.99;47.59;94239.41;4989739;28;20030;-86
2023/07/25 10:01:08;;;;;;;9.27;6.05;;;;;;;35.05;47.36;94235.34;4991614;28;20089;-86
2023/07/25 10:03:34;;;;;;;10.67;6.47;;;;;;;35.13;49.71;94231.75;4989466;28;20079;-87
2023/07/25 10:06:00;;;;;;;15.20;5.97;;;;;;;35.53;48.31;94234.38;5013067;28;20026;-87
2023/07/25 10:08:26;;;;;;;8.90;6.25;;;;;;;34.69;49.54;94225.47;5006452;28;20026;-88
2023/07/25 10:10:54;;;;;;;8.13;6.28;;;;;;;34.85;49.92;94214.78;4984326;28;20589;-88
2023/07/25 10:13:19;;;;;;;12.10;5.75;;;;;;;35.40;49.55;94230.19;4991334;28;20026;-92
2023/07/25 10:15:45;;;;;;;8.02;6.15;;;;;;;35.25;49.60;94204.78;4989846;28;20038;-87
2023/07/25 10:18:20;;;;;;;11.07;5.85;;;;;;;34.72;47.81;94219.41;4991343;28;20022;-91
2023/07/25 10:20:45;;;;;;;13.50;6.32;;;;;;;34.87;47.34;94216.00;5006761;28;20105;-86
2023/07/25 10:23:11;;;;;;;12.70;6.00;;;;;;;35.56;48.15;94212.13;4990827;28;20118;-86
2023/07/25 10:25:37;;;;;;;11.75;6.30;;;;;;;35.62;47.39;94209.97;4972925;28;20129;-87
2023/07/25 10:28:03;;;;;;;10.90;5.63;;;;;;;35.28;48.14;94211.38;4974717;28;20538;-87
2023/07/25 10:30:31;;;;;;;9.43;5.55;;;;;;;35.10;47.36;94207.41;4990832;28;20454;-88
2023/07/25 10:33:02;;;;;;;9.48;5.75;;;;;;;34.89;49.28;94205.69;4989518;28;20054;-88
2023/07/25 10:35:53;;;;;;;10.68;6.25;;;;;;;34.87;47.83;94202.53;4991343;28;20038;-90
2023/07/25 10:38:42;;;;;;;7.32;5.35;;;;;;;35.21;46.64;94190.41;4973458;28;20037;-86
2023/07/25 10:41:15;;;;;;;11.13;6.05;;;;;;;35.72;47.91;94195.97;5008251;28;20108;-91
2023/07/25 10:43:55;;;;;;;10.82;5.47;;;;;;;35.16;47.41;94187.19;4989823;28;20060;-87
2023/07/25 10:46:32;;;;;;;11.05;6.05;;;;;;;35.61;47.43;94181.47;4989324;28;20026;-87
2023/07/25 10:49:14;;;;;;;11.73;6.10;;;;;;;35.60;47.47;94178.00;4974699;28;20080;-87
2023/07/25 10:51:58;;;;;;;10.20;5.35;;;;;;;35.43;46.52;94170.19;4989453;28;20534;-89
2023/07/25 10:54:27;;;;;;;7.88;5.35;;;;;;;34.89;47.08;94162.59;4990866;28;20049;-86
2023/07/25 10:57:13;;;;;;;9.65;6.13;;;;;;;35.64;48.02;94165.34;4974624;28;20055;-91
2023/07/25 11:00:01;;;;;;;12.07;5.78;;;;;;;35.44;48.11;94166.38;4989276;28;20061;-90
2023/07/25 11:02:34;;;;;;;16.55;6.25;;;;;;;35.45;47.83;94151.75;4991168;28;20026;-88
2023/07/25 11:05:12;;;;;;;9.13;5.43;;;;;;;35.55;46.35;94151.25;4973917;28;20033;-88
2023/07/25 11:07:46;;;;;;;8.95;5.63;;;;;;;35.63;47.00;94142.25;5009765;28;20183;-89
2023/07/25 11:10:28;;;;;;;14.25;6.50;;;;;;;35.58;46.68;94134.41;5012645;28;20026;-91
2023/07/25 11:12:55;;;;;;;9.88;5.35;;;;;;;35.39;48.14;94126.19;4977196;28;20468;-92
2023/07/25 11:15:21;;;;;;;12.70;5.82;;;;;;;35.32;41.05;94126.03;4978572;28;20021;-85
2023/07/25 11:17:47;;;;;;;7.95;5.10;;;;;;;35.77;41.18;94123.69;5010424;28;20041;-93
2023/07/25 11:20:15;;;;;;;8.65;5.13;;;;;;;35.96;42.38;94125.69;4977968;28;20033;-87
2023/07/25 11:22:41;;;;;;;11.07;5.35;;;;;;;35.77;42.17;94123.69;4977457;28;20113;-87